sensor_id;sensor_type;location;lat;lon;timestamp;temperature;humidity
13198;DHT22;6664;52.514;13.440;2023-07-13T00:00:41;19.10;11.90
13198;DHT22;6664;52.514;13.440;2023-07-13T00:03:27;19.10;12.80
13198;DHT22;6664;52.514;13.440;2023-07-13T00:06:16;19.10;12.30
13198;DHT22;6664;52.514;13.440;2023-07-13T00:09:02;19.00;12.40
13198;DHT22;6664;52.514;13.440;2023-07-13T00:11:55;19.00;12.60
13198;DHT22;6664;52.514;13.440;2023-07-13T00:14:41;18.90;12.70
13198;DHT22;6664;52.514;13.440;2023-07-13T00:17:27;18.80;12.90
13198;DHT22;6664;52.514;13.440;2023-07-13T00:20:13;18.80;13.00
13198;DHT22;6664;52.514;13.440;2023-07-13T00:23:01;18.80;13.20
13198;DHT22;6664;52.514;13.440;2023-07-13T00:25:47;18.80;12.90
13198;DHT22;6664;52.514;13.440;2023-07-13T00:28:33;18.70;13.30
13198;DHT22;6664;52.514;13.440;2023-07-13T00:31:19;18.60;13.40
13198;DHT22;6664;52.514;13.440;2023-07-13T00:34:05;18.50;13.10
13198;DHT22;6664;52.514;13.440;2023-07-13T00:36:53;18.60;13.40
13198;DHT22;6664;52.514;13.440;2023-07-13T00:39:39;18.60;13.20
13198;DHT22;6664;52.514;13.440;2023-07-13T00:42:24;18.50;13.50
13198;DHT22;6664;52.514;13.440;2023-07-13T00:48:00;18.30;13.60
13198;DHT22;6664;52.514;13.440;2023-07-13T00:50:48;18.20;14.10
13198;DHT22;6664;52.514;13.440;2023-07-13T00:53:35;18.10;14.10
13198;DHT22;6664;52.514;13.440;2023-07-13T00:56:20;18.00;14.00
13198;DHT22;6664;52.514;13.440;2023-07-13T00:59:11;17.90;14.10
13198;DHT22;6664;52.514;13.440;2023-07-13T01:01:57;17.70;14.90
13198;DHT22;6664;52.514;13.440;2023-07-13T01:04:46;17.60;15.70
13198;DHT22;6664;52.514;13.440;2023-07-13T01:07:31;17.50;16.00
13198;DHT22;6664;52.514;13.440;2023-07-13T01:10:17;17.50;16.30
13198;DHT22;6664;52.514;13.440;2023-07-13T01:13:08;17.30;16.90
13198;DHT22;6664;52.514;13.440;2023-07-13T01:15:58;17.30;17.40
13198;DHT22;6664;52.514;13.440;2023-07-13T01:18:47;17.20;17.80
13198;DHT22;6664;52.514;13.440;2023-07-13T01:21:33;17.30;18.10
13198;DHT22;6664;52.514;13.440;2023-07-13T01:24:21;17.30;18.10
13198;DHT22;6664;52.514;13.440;2023-07-13T01:27:13;17.30;18.10
13198;DHT22;6664;52.514;13.440;2023-07-13T01:30:01;17.20;19.10
13198;DHT22;6664;52.514;13.440;2023-07-13T01:32:49;17.20;18.90
13198;DHT22;6664;52.514;13.440;2023-07-13T01:35:35;17.20;18.90
13198;DHT22;6664;52.514;13.440;2023-07-13T01:38:22;17.00;19.00
13198;DHT22;6664;52.514;13.440;2023-07-13T01:41:08;16.90;19.50
13198;DHT22;6664;52.514;13.440;2023-07-13T01:43:53;16.80;19.90
13198;DHT22;6664;52.514;13.440;2023-07-13T01:46:39;16.70;20.40
13198;DHT22;6664;52.514;13.440;2023-07-13T01:49:24;16.70;20.70
13198;DHT22;6664;52.514;13.440;2023-07-13T01:52:12;16.50;21.00
13198;DHT22;6664;52.514;13.440;2023-07-13T01:54:57;16.50;21.40
13198;DHT22;6664;52.514;13.440;2023-07-13T01:57:43;16.40;21.80
13198;DHT22;6664;52.514;13.440;2023-07-13T02:00:29;16.40;21.90
13198;DHT22;6664;52.514;13.440;2023-07-13T02:03:17;16.40;22.10
13198;DHT22;6664;52.514;13.440;2023-07-13T02:06:03;16.30;22.50
13198;DHT22;6664;52.514;13.440;2023-07-13T02:08:49;16.30;22.80
13198;DHT22;6664;52.514;13.440;2023-07-13T02:11:37;16.30;23.10
13198;DHT22;6664;52.514;13.440;2023-07-13T02:14:22;16.30;23.40
13198;DHT22;6664;52.514;13.440;2023-07-13T02:17:09;16.30;23.70
13198;DHT22;6664;52.514;13.440;2023-07-13T02:19:55;16.40;23.70
13198;DHT22;6664;52.514;13.440;2023-07-13T02:22:42;16.50;23.50
13198;DHT22;6664;52.514;13.440;2023-07-13T02:25:28;16.50;23.40
13198;DHT22;6664;52.514;13.440;2023-07-13T02:28:14;16.50;23.50
13198;DHT22;6664;52.514;13.440;2023-07-13T02:31:08;16.40;23.70
13198;DHT22;6664;52.514;13.440;2023-07-13T02:33:54;16.40;23.60
13198;DHT22;6664;52.514;13.440;2023-07-13T02:36:41;16.40;23.70
13198;DHT22;6664;52.514;13.440;2023-07-13T02:39:26;16.50;23.70
13198;DHT22;6664;52.514;13.440;2023-07-13T02:42:12;16.40;23.90
13198;DHT22;6664;52.514;13.440;2023-07-13T02:44:57;16.60;23.40
13198;DHT22;6664;52.514;13.440;2023-07-13T02:47:43;16.90;22.30
13198;DHT22;6664;52.514;13.440;2023-07-13T02:50:29;16.90;23.40
13198;DHT22;6664;52.514;13.440;2023-07-13T02:53:17;16.70;23.30
13198;DHT22;6664;52.514;13.440;2023-07-13T02:56:04;16.60;23.80
13198;DHT22;6664;52.514;13.440;2023-07-13T02:58:50;16.50;24.20
13198;DHT22;6664;52.514;13.440;2023-07-13T03:01:36;16.50;24.60
13198;DHT22;6664;52.514;13.440;2023-07-13T03:04:21;16.40;24.90
13198;DHT22;6664;52.514;13.440;2023-07-13T03:07:07;16.30;25.30
13198;DHT22;6664;52.514;13.440;2023-07-13T03:09:57;16.30;25.60
13198;DHT22;6664;52.514;13.440;2023-07-13T03:12:42;16.30;25.60
13198;DHT22;6664;52.514;13.440;2023-07-13T03:15:28;16.40;25.80
13198;DHT22;6664;52.514;13.440;2023-07-13T03:18:14;16.80;24.30
13198;DHT22;6664;52.514;13.440;2023-07-13T03:21:02;16.90;23.40
13198;DHT22;6664;52.514;13.440;2023-07-13T03:23:47;17.10;22.60
13198;DHT22;6664;52.514;13.440;2023-07-13T03:26:33;17.20;22.40
13198;DHT22;6664;52.514;13.440;2023-07-13T03:29:19;17.10;22.40
13198;DHT22;6664;52.514;13.440;2023-07-13T03:32:05;17.30;22.40
13198;DHT22;6664;52.514;13.440;2023-07-13T03:34:51;17.50;21.50
13198;DHT22;6664;52.514;13.440;2023-07-13T03:37:36;17.80;20.90
13198;DHT22;6664;52.514;13.440;2023-07-13T03:40:28;17.80;20.60
13198;DHT22;6664;52.514;13.440;2023-07-13T03:43:14;18.00;20.30
13198;DHT22;6664;52.514;13.440;2023-07-13T03:46:02;18.10;19.80
13198;DHT22;6664;52.514;13.440;2023-07-13T03:48:48;18.30;19.30
13198;DHT22;6664;52.514;13.440;2023-07-13T03:51:36;18.30;18.70
13198;DHT22;6664;52.514;13.440;2023-07-13T03:54:24;18.30;18.70
13198;DHT22;6664;52.514;13.440;2023-07-13T03:57:10;18.30;18.80
13198;DHT22;6664;52.514;13.440;2023-07-13T03:59:56;18.20;18.70
13198;DHT22;6664;52.514;13.440;2023-07-13T04:02:41;18.10;19.30
13198;DHT22;6664;52.514;13.440;2023-07-13T04:05:27;18.00;19.70
13198;DHT22;6664;52.514;13.440;2023-07-13T04:08:13;18.10;19.70
13198;DHT22;6664;52.514;13.440;2023-07-13T04:11:02;18.00;19.60
13198;DHT22;6664;52.514;13.440;2023-07-13T04:13:53;18.00;19.50
13198;DHT22;6664;52.514;13.440;2023-07-13T04:16:39;17.90;20.30
13198;DHT22;6664;52.514;13.440;2023-07-13T04:19:25;17.90;19.70
13198;DHT22;6664;52.514;13.440;2023-07-13T04:22:10;18.00;19.30
13198;DHT22;6664;52.514;13.440;2023-07-13T04:24:56;17.90;18.90
13198;DHT22;6664;52.514;13.440;2023-07-13T04:27:41;17.90;19.20
13198;DHT22;6664;52.514;13.440;2023-07-13T04:30:27;17.90;19.30
13198;DHT22;6664;52.514;13.440;2023-07-13T04:33:12;17.90;19.30
13198;DHT22;6664;52.514;13.440;2023-07-13T04:35:58;17.90;19.30
13198;DHT22;6664;52.514;13.440;2023-07-13T04:38:44;17.90;19.30
13198;DHT22;6664;52.514;13.440;2023-07-13T04:41:30;17.90;19.60
13198;DHT22;6664;52.514;13.440;2023-07-13T04:44:16;17.90;19.50
13198;DHT22;6664;52.514;13.440;2023-07-13T04:47:01;18.00;19.70
13198;DHT22;6664;52.514;13.440;2023-07-13T04:49:47;18.00;19.60
13198;DHT22;6664;52.514;13.440;2023-07-13T04:52:33;18.00;19.40
13198;DHT22;6664;52.514;13.440;2023-07-13T04:55:19;18.10;18.90
13198;DHT22;6664;52.514;13.440;2023-07-13T04:58:05;18.10;19.00
13198;DHT22;6664;52.514;13.440;2023-07-13T05:00:51;18.10;18.70
13198;DHT22;6664;52.514;13.440;2023-07-13T05:03:40;18.10;18.70
13198;DHT22;6664;52.514;13.440;2023-07-13T05:06:25;18.20;18.70
13198;DHT22;6664;52.514;13.440;2023-07-13T05:09:10;18.30;18.60
13198;DHT22;6664;52.514;13.440;2023-07-13T05:11:57;18.30;18.50
13198;DHT22;6664;52.514;13.440;2023-07-13T05:14:43;18.30;18.20
13198;DHT22;6664;52.514;13.440;2023-07-13T05:17:29;18.30;18.20
13198;DHT22;6664;52.514;13.440;2023-07-13T05:20:15;18.40;18.40
13198;DHT22;6664;52.514;13.440;2023-07-13T05:23:03;18.40;18.20
13198;DHT22;6664;52.514;13.440;2023-07-13T05:25:48;18.40;18.00
13198;DHT22;6664;52.514;13.440;2023-07-13T05:28:34;18.40;18.20
13198;DHT22;6664;52.514;13.440;2023-07-13T05:31:20;18.40;18.20
13198;DHT22;6664;52.514;13.440;2023-07-13T05:34:05;18.50;17.90
13198;DHT22;6664;52.514;13.440;2023-07-13T05:36:53;18.60;17.50
13198;DHT22;6664;52.514;13.440;2023-07-13T05:39:39;18.70;17.70
13198;DHT22;6664;52.514;13.440;2023-07-13T05:42:25;18.80;17.70
13198;DHT22;6664;52.514;13.440;2023-07-13T05:45:11;18.70;17.90
13198;DHT22;6664;52.514;13.440;2023-07-13T05:47:56;18.70;17.70
13198;DHT22;6664;52.514;13.440;2023-07-13T05:50:44;18.80;17.90
13198;DHT22;6664;52.514;13.440;2023-07-13T05:53:30;18.80;17.00
13198;DHT22;6664;52.514;13.440;2023-07-13T05:56:16;18.80;17.30
13198;DHT22;6664;52.514;13.440;2023-07-13T05:59:02;18.80;17.20
13198;DHT22;6664;52.514;13.440;2023-07-13T06:01:49;18.80;17.40
13198;DHT22;6664;52.514;13.440;2023-07-13T06:04:35;18.90;17.20
13198;DHT22;6664;52.514;13.440;2023-07-13T06:07:20;18.90;17.40
13198;DHT22;6664;52.514;13.440;2023-07-13T06:10:06;19.00;17.10
13198;DHT22;6664;52.514;13.440;2023-07-13T06:12:52;19.00;17.40
13198;DHT22;6664;52.514;13.440;2023-07-13T06:15:38;19.20;17.40
13198;DHT22;6664;52.514;13.440;2023-07-13T06:18:25;19.20;17.60
13198;DHT22;6664;52.514;13.440;2023-07-13T06:21:17;19.20;17.30
13198;DHT22;6664;52.514;13.440;2023-07-13T06:24:03;19.20;17.10
13198;DHT22;6664;52.514;13.440;2023-07-13T06:26:49;19.20;17.00
13198;DHT22;6664;52.514;13.440;2023-07-13T06:29:37;19.30;16.70
13198;DHT22;6664;52.514;13.440;2023-07-13T06:32:22;19.20;16.70
13198;DHT22;6664;52.514;13.440;2023-07-13T06:35:08;19.20;16.30
13198;DHT22;6664;52.514;13.440;2023-07-13T06:37:58;19.30;16.10
13198;DHT22;6664;52.514;13.440;2023-07-13T06:40:44;19.40;16.20
13198;DHT22;6664;52.514;13.440;2023-07-13T06:43:30;19.40;15.90
13198;DHT22;6664;52.514;13.440;2023-07-13T06:46:17;19.50;15.10
13198;DHT22;6664;52.514;13.440;2023-07-13T06:49:02;19.50;15.00
13198;DHT22;6664;52.514;13.440;2023-07-13T06:51:50;19.50;15.00
13198;DHT22;6664;52.514;13.440;2023-07-13T06:54:36;19.60;15.10
13198;DHT22;6664;52.514;13.440;2023-07-13T06:57:22;19.60;14.50
13198;DHT22;6664;52.514;13.440;2023-07-13T07:00:11;19.70;14.00
13198;DHT22;6664;52.514;13.440;2023-07-13T07:02:57;19.80;13.60
13198;DHT22;6664;52.514;13.440;2023-07-13T07:05:42;19.80;13.10
13198;DHT22;6664;52.514;13.440;2023-07-13T07:08:28;19.90;13.20
13198;DHT22;6664;52.514;13.440;2023-07-13T07:11:20;19.90;12.80
13198;DHT22;6664;52.514;13.440;2023-07-13T07:14:10;19.90;12.80
13198;DHT22;6664;52.514;13.440;2023-07-13T07:16:55;20.00;12.10
13198;DHT22;6664;52.514;13.440;2023-07-13T07:19:44;20.00;11.20
13198;DHT22;6664;52.514;13.440;2023-07-13T07:22:30;20.00;11.60
13198;DHT22;6664;52.514;13.440;2023-07-13T07:25:18;20.20;11.30
13198;DHT22;6664;52.514;13.440;2023-07-13T07:28:04;20.20;10.50
13198;DHT22;6664;52.514;13.440;2023-07-13T07:30:54;20.50;10.00
13198;DHT22;6664;52.514;13.440;2023-07-13T07:34:00;21.10;9.40
13198;DHT22;6664;52.514;13.440;2023-07-13T07:36:46;21.70;7.60
13198;DHT22;6664;52.514;13.440;2023-07-13T07:39:34;22.10;6.60
13198;DHT22;6664;52.514;13.440;2023-07-13T07:42:20;22.50;5.60
13198;DHT22;6664;52.514;13.440;2023-07-13T07:45:06;22.90;5.00
13198;DHT22;6664;52.514;13.440;2023-07-13T07:47:52;22.80;3.10
13198;DHT22;6664;52.514;13.440;2023-07-13T07:50:40;22.90;3.60
13198;DHT22;6664;52.514;13.440;2023-07-13T07:53:25;23.00;3.10
13198;DHT22;6664;52.514;13.440;2023-07-13T07:56:11;23.30;3.40
13198;DHT22;6664;52.514;13.440;2023-07-13T07:58:59;23.20;2.40
13198;DHT22;6664;52.514;13.440;2023-07-13T08:01:48;23.30;2.50
13198;DHT22;6664;52.514;13.440;2023-07-13T08:04:41;23.60;1.50
13198;DHT22;6664;52.514;13.440;2023-07-13T08:07:47;23.60;1.40
13198;DHT22;6664;52.514;13.440;2023-07-13T08:10:37;23.30;1.70
13198;DHT22;6664;52.514;13.440;2023-07-13T08:13:23;23.40;2.00
13198;DHT22;6664;52.514;13.440;2023-07-13T08:16:08;23.40;2.00
13198;DHT22;6664;52.514;13.440;2023-07-13T08:18:54;23.60;1.30
13198;DHT22;6664;52.514;13.440;2023-07-13T08:21:40;24.00;1.00
13198;DHT22;6664;52.514;13.440;2023-07-13T08:24:27;24.30;1.00
13198;DHT22;6664;52.514;13.440;2023-07-13T08:27:13;24.00;1.00
13198;DHT22;6664;52.514;13.440;2023-07-13T08:29:59;23.80;1.00
13198;DHT22;6664;52.514;13.440;2023-07-13T08:32:44;23.60;1.00
13198;DHT22;6664;52.514;13.440;2023-07-13T08:35:30;23.60;1.00
13198;DHT22;6664;52.514;13.440;2023-07-13T08:38:19;23.70;1.00
13198;DHT22;6664;52.514;13.440;2023-07-13T08:41:15;24.00;1.00
13198;DHT22;6664;52.514;13.440;2023-07-13T08:44:03;24.40;1.00
13198;DHT22;6664;52.514;13.440;2023-07-13T08:46:54;24.20;1.00
13198;DHT22;6664;52.514;13.440;2023-07-13T08:49:40;24.00;1.00
13198;DHT22;6664;52.514;13.440;2023-07-13T08:52:33;24.20;1.00
13198;DHT22;6664;52.514;13.440;2023-07-13T08:55:34;24.20;1.00
13198;DHT22;6664;52.514;13.440;2023-07-13T08:58:25;24.40;1.00
13198;DHT22;6664;52.514;13.440;2023-07-13T09:05:01;23.40;1.00
13198;DHT22;6664;52.514;13.440;2023-07-13T09:11:18;22.90;2.00
13198;DHT22;6664;52.514;13.440;2023-07-13T09:17:50;23.10;1.20
13198;DHT22;6664;52.514;13.440;2023-07-13T09:20:49;22.80;1.00
13198;DHT22;6664;52.514;13.440;2023-07-13T09:23:39;22.50;1.10
13198;DHT22;6664;52.514;13.440;2023-07-13T09:26:25;22.40;1.00
13198;DHT22;6664;52.514;13.440;2023-07-13T09:29:33;22.30;1.00
13198;DHT22;6664;52.514;13.440;2023-07-13T09:32:21;22.20;1.10
13198;DHT22;6664;52.514;13.440;2023-07-13T09:35:11;22.30;1.00
13198;DHT22;6664;52.514;13.440;2023-07-13T09:38:03;22.30;1.00
13198;DHT22;6664;52.514;13.440;2023-07-13T09:41:23;22.30;1.00
13198;DHT22;6664;52.514;13.440;2023-07-13T09:44:15;22.30;1.00
13198;DHT22;6664;52.514;13.440;2023-07-13T09:47:18;22.50;1.00
13198;DHT22;6664;52.514;13.440;2023-07-13T09:50:19;22.80;1.00
13198;DHT22;6664;52.514;13.440;2023-07-13T09:53:13;23.10;1.00
13198;DHT22;6664;52.514;13.440;2023-07-13T09:55:59;23.30;1.00
13198;DHT22;6664;52.514;13.440;2023-07-13T09:58:44;23.30;1.00
13198;DHT22;6664;52.514;13.440;2023-07-13T10:01:39;23.20;1.00
13198;DHT22;6664;52.514;13.440;2023-07-13T10:04:31;23.20;1.00
13198;DHT22;6664;52.514;13.440;2023-07-13T10:07:17;22.90;1.00
13198;DHT22;6664;52.514;13.440;2023-07-13T10:10:19;23.00;1.00
13198;DHT22;6664;52.514;13.440;2023-07-13T10:13:24;23.20;1.00
13198;DHT22;6664;52.514;13.440;2023-07-13T10:16:11;23.00;1.00
13198;DHT22;6664;52.514;13.440;2023-07-13T10:18:59;23.00;1.00
13198;DHT22;6664;52.514;13.440;2023-07-13T10:21:58;23.10;1.00
13198;DHT22;6664;52.514;13.440;2023-07-13T10:24:47;23.50;1.00
13198;DHT22;6664;52.514;13.440;2023-07-13T10:27:38;24.00;1.00
13198;DHT22;6664;52.514;13.440;2023-07-13T10:30:28;24.10;1.00
13198;DHT22;6664;52.514;13.440;2023-07-13T10:33:18;24.40;1.00
13198;DHT22;6664;52.514;13.440;2023-07-13T10:39:20;23.70;1.00
13198;DHT22;6664;52.514;13.440;2023-07-13T10:42:13;23.80;1.00
13198;DHT22;6664;52.514;13.440;2023-07-13T10:45:01;23.60;1.00
13198;DHT22;6664;52.514;13.440;2023-07-13T10:47:48;23.80;1.00
13198;DHT22;6664;52.514;13.440;2023-07-13T10:50:35;23.80;1.00
13198;DHT22;6664;52.514;13.440;2023-07-13T10:56:29;24.20;1.00
13198;DHT22;6664;52.514;13.440;2023-07-13T10:59:28;24.30;1.00
13198;DHT22;6664;52.514;13.440;2023-07-13T11:02:35;24.40;1.00
13198;DHT22;6664;52.514;13.440;2023-07-13T11:05:26;24.60;1.00
13198;DHT22;6664;52.514;13.440;2023-07-13T11:14:36;25.00;1.00
13198;DHT22;6664;52.514;13.440;2023-07-13T11:17:38;24.70;1.00
13198;DHT22;6664;52.514;13.440;2023-07-13T11:20:39;24.70;1.00
13198;DHT22;6664;52.514;13.440;2023-07-13T11:23:30;24.80;1.00
13198;DHT22;6664;52.514;13.440;2023-07-13T11:29:37;24.60;1.00
13198;DHT22;6664;52.514;13.440;2023-07-13T11:32:30;24.70;1.00
13198;DHT22;6664;52.514;13.440;2023-07-13T11:35:23;25.10;1.00
13198;DHT22;6664;52.514;13.440;2023-07-13T11:38:41;25.00;1.00
13198;DHT22;6664;52.514;13.440;2023-07-13T11:42:00;25.10;1.00
13198;DHT22;6664;52.514;13.440;2023-07-13T11:44:49;25.10;1.00
13198;DHT22;6664;52.514;13.440;2023-07-13T11:47:54;25.20;1.00
13198;DHT22;6664;52.514;13.440;2023-07-13T11:50:42;25.10;1.00
13198;DHT22;6664;52.514;13.440;2023-07-13T11:53:44;25.60;1.00
13198;DHT22;6664;52.514;13.440;2023-07-13T11:56:34;25.70;1.00
13198;DHT22;6664;52.514;13.440;2023-07-13T11:59:23;25.60;1.00
13198;DHT22;6664;52.514;13.440;2023-07-13T12:02:16;26.00;1.00
13198;DHT22;6664;52.514;13.440;2023-07-13T12:05:05;25.80;1.00
13198;DHT22;6664;52.514;13.440;2023-07-13T12:07:52;25.50;1.00
13198;DHT22;6664;52.514;13.440;2023-07-13T12:10:38;25.40;1.00
13198;DHT22;6664;52.514;13.440;2023-07-13T12:13:27;26.00;1.00
13198;DHT22;6664;52.514;13.440;2023-07-13T12:22:02;26.80;1.00
13198;DHT22;6664;52.514;13.440;2023-07-13T12:24:53;26.60;1.00
13198;DHT22;6664;52.514;13.440;2023-07-13T12:27:40;26.60;1.00
13198;DHT22;6664;52.514;13.440;2023-07-13T12:30:30;27.50;1.00
13198;DHT22;6664;52.514;13.440;2023-07-13T12:33:16;28.00;1.00
13198;DHT22;6664;52.514;13.440;2023-07-13T12:36:05;28.80;1.00
13198;DHT22;6664;52.514;13.440;2023-07-13T12:38:51;31.60;1.00
13198;DHT22;6664;52.514;13.440;2023-07-13T12:41:36;32.00;1.00
13198;DHT22;6664;52.514;13.440;2023-07-13T12:44:31;34.50;1.00
13198;DHT22;6664;52.514;13.440;2023-07-13T12:47:20;32.80;1.00
13198;DHT22;6664;52.514;13.440;2023-07-13T12:50:20;32.10;1.00
13198;DHT22;6664;52.514;13.440;2023-07-13T12:53:15;35.10;1.00
13198;DHT22;6664;52.514;13.440;2023-07-13T12:56:02;37.40;1.00
13198;DHT22;6664;52.514;13.440;2023-07-13T12:58:50;40.00;1.00
13198;DHT22;6664;52.514;13.440;2023-07-13T13:01:41;33.90;1.00
13198;DHT22;6664;52.514;13.440;2023-07-13T13:04:27;34.40;1.00
13198;DHT22;6664;52.514;13.440;2023-07-13T13:07:13;36.00;1.00
13198;DHT22;6664;52.514;13.440;2023-07-13T13:09:58;36.10;1.00
13198;DHT22;6664;52.514;13.440;2023-07-13T13:12:43;34.90;1.00
13198;DHT22;6664;52.514;13.440;2023-07-13T13:15:29;33.60;1.00
13198;DHT22;6664;52.514;13.440;2023-07-13T13:18:17;37.00;1.00
13198;DHT22;6664;52.514;13.440;2023-07-13T13:21:03;41.40;1.00
13198;DHT22;6664;52.514;13.440;2023-07-13T13:23:48;38.10;1.00
13198;DHT22;6664;52.514;13.440;2023-07-13T13:26:36;40.60;1.00
13198;DHT22;6664;52.514;13.440;2023-07-13T13:29:24;41.50;1.00
13198;DHT22;6664;52.514;13.440;2023-07-13T13:32:14;42.50;1.00
13198;DHT22;6664;52.514;13.440;2023-07-13T13:35:00;37.40;1.00
13198;DHT22;6664;52.514;13.440;2023-07-13T13:37:47;33.80;1.00
13198;DHT22;6664;52.514;13.440;2023-07-13T13:40:36;30.40;1.00
13198;DHT22;6664;52.514;13.440;2023-07-13T13:43:25;34.00;1.00
13198;DHT22;6664;52.514;13.440;2023-07-13T13:46:24;39.40;1.00
13198;DHT22;6664;52.514;13.440;2023-07-13T13:49:20;40.40;1.00
13198;DHT22;6664;52.514;13.440;2023-07-13T13:52:09;42.00;1.00
13198;DHT22;6664;52.514;13.440;2023-07-13T13:54:55;38.00;1.00
13198;DHT22;6664;52.514;13.440;2023-07-13T13:57:41;38.00;1.00
13198;DHT22;6664;52.514;13.440;2023-07-13T14:00:32;35.40;1.00
13198;DHT22;6664;52.514;13.440;2023-07-13T14:03:20;36.50;1.00
13198;DHT22;6664;52.514;13.440;2023-07-13T14:06:12;39.80;1.00
13198;DHT22;6664;52.514;13.440;2023-07-13T14:09:00;41.20;1.00
13198;DHT22;6664;52.514;13.440;2023-07-13T14:11:50;42.40;1.00
13198;DHT22;6664;52.514;13.440;2023-07-13T14:14:41;36.40;1.00
13198;DHT22;6664;52.514;13.440;2023-07-13T14:17:30;34.80;1.00
13198;DHT22;6664;52.514;13.440;2023-07-13T14:20:18;35.50;1.00
13198;DHT22;6664;52.514;13.440;2023-07-13T14:23:04;35.20;1.00
13198;DHT22;6664;52.514;13.440;2023-07-13T14:25:50;31.40;1.00
13198;DHT22;6664;52.514;13.440;2023-07-13T14:28:44;34.30;1.00
13198;DHT22;6664;52.514;13.440;2023-07-13T14:31:32;35.80;1.00
13198;DHT22;6664;52.514;13.440;2023-07-13T14:34:18;34.60;1.00
13198;DHT22;6664;52.514;13.440;2023-07-13T14:37:04;35.60;1.00
13198;DHT22;6664;52.514;13.440;2023-07-13T14:39:51;33.90;1.00
13198;DHT22;6664;52.514;13.440;2023-07-13T14:42:37;33.20;1.00
13198;DHT22;6664;52.514;13.440;2023-07-13T14:45:23;32.80;1.00
13198;DHT22;6664;52.514;13.440;2023-07-13T14:48:28;34.70;1.00
13198;DHT22;6664;52.514;13.440;2023-07-13T14:51:15;31.20;1.00
13198;DHT22;6664;52.514;13.440;2023-07-13T14:54:04;31.80;1.00
13198;DHT22;6664;52.514;13.440;2023-07-13T14:56:51;31.30;1.00
13198;DHT22;6664;52.514;13.440;2023-07-13T14:59:36;30.70;1.00
13198;DHT22;6664;52.514;13.440;2023-07-13T15:02:27;29.00;1.00
13198;DHT22;6664;52.514;13.440;2023-07-13T15:05:22;28.80;1.00
13198;DHT22;6664;52.514;13.440;2023-07-13T15:08:12;29.60;1.00
13198;DHT22;6664;52.514;13.440;2023-07-13T15:10:58;28.70;1.00
13198;DHT22;6664;52.514;13.440;2023-07-13T15:13:45;28.30;1.00
13198;DHT22;6664;52.514;13.440;2023-07-13T15:16:33;28.30;1.00
13198;DHT22;6664;52.514;13.440;2023-07-13T15:19:23;28.60;1.00
13198;DHT22;6664;52.514;13.440;2023-07-13T15:22:09;28.10;1.00
13198;DHT22;6664;52.514;13.440;2023-07-13T15:24:56;27.10;1.00
13198;DHT22;6664;52.514;13.440;2023-07-13T15:27:45;27.20;1.00
13198;DHT22;6664;52.514;13.440;2023-07-13T15:30:40;27.20;1.00
13198;DHT22;6664;52.514;13.440;2023-07-13T15:33:29;27.60;1.00
13198;DHT22;6664;52.514;13.440;2023-07-13T15:36:16;27.50;1.00
13198;DHT22;6664;52.514;13.440;2023-07-13T15:39:02;26.90;1.00
13198;DHT22;6664;52.514;13.440;2023-07-13T15:41:48;27.20;1.00
13198;DHT22;6664;52.514;13.440;2023-07-13T15:44:35;27.30;1.00
13198;DHT22;6664;52.514;13.440;2023-07-13T15:47:21;27.00;1.00
13198;DHT22;6664;52.514;13.440;2023-07-13T15:50:15;26.60;1.00
13198;DHT22;6664;52.514;13.440;2023-07-13T15:53:02;26.50;1.00
13198;DHT22;6664;52.514;13.440;2023-07-13T15:55:48;27.50;1.00
13198;DHT22;6664;52.514;13.440;2023-07-13T15:58:39;27.00;1.00
13198;DHT22;6664;52.514;13.440;2023-07-13T16:01:26;27.80;1.00
13198;DHT22;6664;52.514;13.440;2023-07-13T16:04:12;27.80;1.00
13198;DHT22;6664;52.514;13.440;2023-07-13T16:07:03;26.70;1.00
13198;DHT22;6664;52.514;13.440;2023-07-13T16:09:49;26.70;1.00
13198;DHT22;6664;52.514;13.440;2023-07-13T16:12:35;26.20;1.00
13198;DHT22;6664;52.514;13.440;2023-07-13T16:15:27;26.50;1.00
13198;DHT22;6664;52.514;13.440;2023-07-13T16:18:14;26.90;1.00
13198;DHT22;6664;52.514;13.440;2023-07-13T16:21:13;26.80;1.00
13198;DHT22;6664;52.514;13.440;2023-07-13T16:24:00;26.30;1.00
13198;DHT22;6664;52.514;13.440;2023-07-13T16:26:50;27.10;1.00
13198;DHT22;6664;52.514;13.440;2023-07-13T16:29:38;26.50;1.00
13198;DHT22;6664;52.514;13.440;2023-07-13T16:32:27;26.00;1.00
13198;DHT22;6664;52.514;13.440;2023-07-13T16:35:14;25.60;1.00
13198;DHT22;6664;52.514;13.440;2023-07-13T16:38:02;25.20;1.00
13198;DHT22;6664;52.514;13.440;2023-07-13T16:40:48;25.20;1.00
13198;DHT22;6664;52.514;13.440;2023-07-13T16:43:35;24.80;1.00
13198;DHT22;6664;52.514;13.440;2023-07-13T16:46:23;24.80;1.00
13198;DHT22;6664;52.514;13.440;2023-07-13T16:49:24;25.00;1.00
13198;DHT22;6664;52.514;13.440;2023-07-13T16:52:12;25.00;1.00
13198;DHT22;6664;52.514;13.440;2023-07-13T16:55:01;24.80;1.00
13198;DHT22;6664;52.514;13.440;2023-07-13T16:57:47;24.70;1.00
13198;DHT22;6664;52.514;13.440;2023-07-13T17:00:33;24.70;1.00
13198;DHT22;6664;52.514;13.440;2023-07-13T17:03:24;24.50;1.00
13198;DHT22;6664;52.514;13.440;2023-07-13T17:06:24;24.30;1.00
13198;DHT22;6664;52.514;13.440;2023-07-13T17:09:13;24.30;1.00
13198;DHT22;6664;52.514;13.440;2023-07-13T17:12:02;24.20;1.00
13198;DHT22;6664;52.514;13.440;2023-07-13T17:14:50;23.30;1.00
13198;DHT22;6664;52.514;13.440;2023-07-13T17:17:37;21.80;1.00
13198;DHT22;6664;52.514;13.440;2023-07-13T17:20:30;21.20;2.50
13198;DHT22;6664;52.514;13.440;2023-07-13T17:23:19;20.20;7.10
13198;DHT22;6664;52.514;13.440;2023-07-13T17:26:05;19.90;9.10
13198;DHT22;6664;52.514;13.440;2023-07-13T17:28:51;19.60;11.60
13198;DHT22;6664;52.514;13.440;2023-07-13T17:31:37;19.50;12.20
13198;DHT22;6664;52.514;13.440;2023-07-13T17:34:26;19.30;12.80
13198;DHT22;6664;52.514;13.440;2023-07-13T17:37:13;19.30;13.30
13198;DHT22;6664;52.514;13.440;2023-07-13T17:40:13;19.20;13.50
13198;DHT22;6664;52.514;13.440;2023-07-13T17:43:02;19.10;13.20
13198;DHT22;6664;52.514;13.440;2023-07-13T17:45:49;19.00;12.90
13198;DHT22;6664;52.514;13.440;2023-07-13T17:48:35;19.00;14.00
13198;DHT22;6664;52.514;13.440;2023-07-13T17:51:25;18.90;14.00
13198;DHT22;6664;52.514;13.440;2023-07-13T17:54:13;18.90;14.30
13198;DHT22;6664;52.514;13.440;2023-07-13T17:57:02;18.90;14.70
13198;DHT22;6664;52.514;13.440;2023-07-13T17:59:53;18.80;14.50
13198;DHT22;6664;52.514;13.440;2023-07-13T18:02:40;18.70;15.40
13198;DHT22;6664;52.514;13.440;2023-07-13T18:05:30;18.70;15.20
13198;DHT22;6664;52.514;13.440;2023-07-13T18:08:29;18.70;15.80
13198;DHT22;6664;52.514;13.440;2023-07-13T18:11:15;18.70;16.10
13198;DHT22;6664;52.514;13.440;2023-07-13T18:14:01;18.70;16.40
13198;DHT22;6664;52.514;13.440;2023-07-13T18:16:54;18.70;16.20
13198;DHT22;6664;52.514;13.440;2023-07-13T18:19:44;18.70;16.60
13198;DHT22;6664;52.514;13.440;2023-07-13T18:22:31;18.70;16.60
13198;DHT22;6664;52.514;13.440;2023-07-13T18:25:22;18.70;16.80
13198;DHT22;6664;52.514;13.440;2023-07-13T18:28:07;18.80;16.90